createdAt,value
2023-01-04T00:00:14.417Z,81.30
2023-01-04T00:02:42.776Z,81.40
2023-01-04T00:05:13.798Z,81.40
2023-01-04T00:07:42.371Z,81.20
2023-01-04T00:10:10.695Z,81.50
2023-01-04T00:12:38.947Z,81.50
2023-01-04T00:15:08.423Z,81.50
2023-01-04T00:17:36.652Z,81.60
2023-01-04T00:20:05.641Z,81.60
2023-01-04T00:22:36.507Z,81.50
2023-01-04T00:25:05.261Z,81.60
2023-01-04T00:27:33.458Z,81.50
2023-01-04T00:30:01.575Z,81.60
2023-01-04T00:32:29.705Z,81.50
2023-01-04T00:34:57.864Z,81.70
2023-01-04T00:37:25.931Z,82.00
2023-01-04T00:39:55.480Z,81.70
2023-01-04T00:42:23.761Z,81.70
2023-01-04T00:44:52.589Z,81.70
2023-01-04T00:47:20.704Z,81.70
2023-01-04T00:49:48.957Z,81.60
2023-01-04T00:52:17.196Z,81.60
2023-01-04T00:54:45.344Z,81.80
2023-01-04T00:57:14.900Z,81.50
2023-01-04T00:59:43.082Z,81.70
2023-01-04T01:02:11.370Z,81.60
2023-01-04T01:04:39.729Z,81.60
2023-01-04T01:07:07.867Z,81.70
2023-01-04T01:09:35.978Z,81.70
2023-01-04T01:12:04.124Z,81.80
2023-01-04T01:14:33.645Z,81.90
2023-01-04T01:17:01.795Z,82.00
2023-01-04T01:19:30.649Z,82.00
2023-01-04T01:21:59.747Z,82.10
2023-01-04T01:24:28.818Z,82.00
2023-01-04T01:26:57.094Z,82.00
2023-01-04T01:29:25.834Z,82.00
2023-01-04T01:31:55.573Z,81.90
2023-01-04T01:34:23.786Z,81.80
2023-01-04T01:36:51.953Z,81.90
2023-01-04T01:39:20.482Z,81.90
2023-01-04T01:41:48.956Z,81.90
2023-01-04T01:44:58.086Z,81.90
2023-01-04T01:47:34.301Z,81.90
2023-01-04T01:50:03.137Z,81.90
2023-01-04T01:52:34.918Z,81.70
2023-01-04T01:55:07.497Z,81.80
2023-01-04T01:57:39.339Z,81.70
2023-01-04T02:00:10.987Z,81.90
2023-01-04T02:02:44.357Z,81.80
2023-01-04T02:05:12.752Z,81.80
2023-01-04T02:07:40.997Z,81.70
2023-01-04T02:10:10.176Z,81.70
2023-01-04T02:12:38.392Z,81.80
2023-01-04T02:15:07.668Z,81.80
2023-01-04T02:17:43.567Z,81.70
2023-01-04T02:20:38.832Z,81.80
2023-01-04T02:23:40.533Z,81.90
2023-01-04T02:26:46.998Z,81.80
2023-01-04T02:29:44.800Z,81.90
2023-01-04T02:32:25.829Z,81.80
2023-01-04T02:35:01.228Z,81.80
2023-01-04T02:37:36.504Z,81.70
2023-01-04T02:40:11.426Z,81.50
2023-01-04T02:43:04.740Z,81.50
2023-01-04T02:45:39.994Z,81.70
2023-01-04T02:48:30.153Z,81.80
2023-01-04T02:50:59.659Z,81.80
2023-01-04T02:53:31.171Z,81.80
2023-01-04T02:56:09.690Z,81.80
2023-01-04T02:58:49.851Z,81.80
2023-01-04T03:01:44.377Z,81.80
2023-01-04T03:04:41.008Z,81.70
2023-01-04T03:07:18.449Z,82.00
2023-01-04T03:09:50.548Z,81.80
2023-01-04T03:12:33.822Z,82.00
2023-01-04T03:15:07.873Z,82.00
2023-01-04T03:17:43.741Z,82.00
2023-01-04T03:20:18.803Z,81.80
2023-01-04T03:23:14.234Z,82.20
2023-01-04T03:26:09.113Z,82.30
2023-01-04T03:28:57.611Z,82.30
2023-01-04T03:31:49.516Z,82.20
2023-01-04T03:34:36.495Z,82.00
2023-01-04T03:37:17.641Z,82.10
2023-01-04T03:40:26.224Z,82.10
2023-01-04T03:43:22.518Z,82.00
2023-01-04T03:46:16.181Z,82.00
2023-01-04T03:48:52.153Z,81.90
2023-01-04T03:51:35.050Z,81.90
2023-01-04T03:54:14.737Z,81.90
2023-01-04T03:56:51.710Z,81.90
2023-01-04T03:59:29.924Z,82.10
2023-01-04T04:02:10.956Z,82.10
2023-01-04T04:04:58.590Z,82.00
2023-01-04T04:07:45.175Z,82.10
2023-01-04T04:10:24.491Z,82.00
2023-01-04T04:13:09.574Z,81.90
2023-01-04T04:15:37.985Z,82.20
2023-01-04T04:18:06.615Z,81.90
2023-01-04T04:20:36.774Z,82.10
2023-01-04T04:23:09.543Z,82.00
2023-01-04T04:25:47.809Z,82.00
2023-01-04T04:28:23.125Z,82.10
2023-01-04T04:30:53.743Z,82.10
2023-01-04T04:33:22.972Z,82.10
2023-01-04T04:35:55.143Z,81.90
2023-01-04T04:38:23.646Z,81.80
2023-01-04T04:41:10.691Z,82.00
2023-01-04T04:43:41.428Z,81.80
2023-01-04T04:46:12.779Z,81.80
2023-01-04T04:48:44.946Z,82.00
2023-01-04T04:51:13.666Z,82.00
2023-01-04T04:53:45.119Z,81.80
2023-01-04T04:56:17.480Z,81.90
2023-01-04T04:58:45.655Z,81.90
2023-01-04T05:01:16.610Z,81.80
2023-01-04T05:03:47.003Z,81.80
2023-01-04T05:06:17.040Z,81.70
2023-01-04T05:08:46.583Z,81.50
2023-01-04T05:11:39.078Z,81.80
2023-01-04T05:14:07.964Z,81.70
2023-01-04T05:16:39.215Z,81.50
2023-01-04T05:19:16.049Z,81.60
2023-01-04T05:21:48.730Z,81.60
2023-01-04T05:24:20.841Z,81.50
2023-01-04T05:26:50.589Z,81.20
2023-01-04T05:29:36.729Z,81.10
2023-01-04T05:32:13.998Z,81.00
2023-01-04T05:34:43.044Z,81.10
2023-01-04T05:37:12.511Z,80.90
2023-01-04T05:39:43.647Z,80.60
2023-01-04T05:42:30.559Z,80.70
2023-01-04T05:47:45.615Z,80.50
2023-01-04T05:50:17.101Z,80.50
2023-01-04T05:52:46.929Z,80.50
2023-01-04T05:55:18.352Z,80.40
2023-01-04T05:57:49.500Z,80.30
2023-01-04T06:00:26.257Z,80.50
2023-01-04T06:02:57.836Z,80.40
2023-01-04T06:05:28.143Z,80.50
2023-01-04T06:07:57.303Z,80.30
2023-01-04T06:10:33.229Z,80.20
2023-01-04T06:13:17.664Z,80.20
2023-01-04T06:15:49.386Z,80.40
2023-01-04T06:18:17.547Z,80.30
2023-01-04T06:20:48.022Z,80.20
2023-01-04T06:23:20.267Z,80.10
2023-01-04T06:25:48.403Z,80.10
2023-01-04T06:28:19.707Z,79.90
2023-01-04T06:30:51.563Z,79.80
2023-01-04T06:33:22.442Z,79.80
2023-01-04T06:35:59.019Z,79.60
2023-01-04T06:38:30.832Z,79.70
2023-01-04T06:41:01.587Z,79.40
2023-01-04T06:43:33.217Z,79.60
2023-01-04T06:46:04.251Z,79.70
2023-01-04T06:48:36.250Z,79.40
2023-01-04T06:51:06.192Z,79.20
2023-01-04T06:53:35.832Z,79.00
2023-01-04T06:56:07.725Z,79.30
2023-01-04T06:58:38.967Z,78.80
2023-01-04T07:01:09.898Z,78.90
2023-01-04T07:03:40.362Z,78.90
2023-01-04T07:06:11.714Z,78.80
2023-01-04T07:08:45.191Z,78.90
2023-01-04T07:11:14.298Z,78.70
2023-01-04T07:13:44.946Z,78.60
2023-01-04T07:16:15.477Z,78.60
2023-01-04T07:18:47.242Z,78.40
2023-01-04T07:21:16.461Z,78.30
2023-01-04T07:23:48.163Z,78.50
2023-01-04T07:26:17.467Z,78.50
2023-01-04T07:29:06.077Z,78.60
2023-01-04T07:31:35.375Z,78.50
2023-01-04T07:34:03.643Z,78.40
2023-01-04T07:36:35.737Z,78.10
2023-01-04T07:39:06.731Z,78.20
2023-01-04T07:41:34.934Z,77.80
2023-01-04T07:44:07.753Z,77.70
2023-01-04T07:46:36.341Z,77.60
2023-01-04T07:49:08.980Z,77.50
2023-01-04T07:51:42.741Z,77.40
2023-01-04T07:54:17.105Z,77.50
2023-01-04T07:56:47.140Z,77.60
2023-01-04T07:59:19.539Z,77.50
2023-01-04T08:01:51.144Z,77.70
2023-01-04T08:04:28.289Z,77.80
2023-01-04T08:07:01.495Z,77.60
2023-01-04T08:09:38.472Z,77.70
2023-01-04T08:12:07.217Z,77.60
2023-01-04T08:14:38.943Z,77.40
2023-01-04T08:17:08.272Z,77.60
2023-01-04T08:19:38.190Z,77.60
2023-01-04T08:22:06.673Z,77.40
2023-01-04T08:24:35.317Z,77.60
2023-01-04T08:27:05.767Z,77.40
2023-01-04T08:29:35.271Z,77.60
2023-01-04T08:32:09.815Z,77.60
2023-01-04T08:34:37.906Z,77.80
2023-01-04T08:37:07.655Z,77.70
2023-01-04T08:39:48.683Z,77.80
2023-01-04T08:42:31.116Z,77.70
2023-01-04T08:45:05.710Z,77.60
2023-01-04T08:47:36.437Z,77.60
2023-01-04T08:50:10.347Z,77.90
2023-01-04T08:52:42.663Z,78.10
2023-01-04T08:57:53.865Z,78.30
2023-01-04T09:00:22.850Z,78.30
2023-01-04T09:03:06.284Z,78.40
2023-01-04T09:05:34.570Z,78.50
2023-01-04T09:08:05.160Z,78.50
2023-01-04T09:10:34.673Z,78.60
2023-01-04T09:13:05.145Z,78.80
2023-01-04T09:15:36.816Z,78.50
2023-01-04T09:18:31.754Z,78.20
2023-01-04T09:21:00.859Z,78.50
2023-01-04T09:23:30.535Z,78.70
2023-01-04T09:26:04.310Z,78.60
2023-01-04T09:28:37.237Z,78.70
2023-01-04T09:31:13.383Z,78.80
2023-01-04T09:36:43.822Z,79.10
2023-01-04T09:39:20.470Z,79.20
2023-01-04T09:42:00.323Z,79.10
2023-01-04T09:47:43.038Z,78.90
2023-01-04T09:50:34.980Z,78.70
2023-01-04T09:53:11.477Z,78.40
2023-01-04T09:55:46.534Z,78.30
2023-01-04T09:58:31.474Z,78.20
2023-01-04T10:01:07.011Z,78.20
2023-01-04T10:03:39.242Z,78.40
2023-01-04T10:06:24.969Z,78.30
2023-01-04T10:08:57.587Z,78.10
2023-01-04T10:11:35.136Z,78.00
2023-01-04T10:14:43.399Z,77.80
2023-01-04T10:17:55.233Z,77.40
2023-01-04T10:23:37.513Z,76.60
2023-01-04T10:26:12.740Z,76.00
2023-01-04T10:28:56.528Z,75.90
2023-01-04T10:31:39.740Z,75.90
2023-01-04T10:34:19.168Z,75.70
2023-01-04T10:36:48.651Z,75.50
2023-01-04T10:39:28.593Z,75.30
2023-01-04T10:42:10.845Z,75.50
2023-01-04T10:44:46.811Z,75.70
2023-01-04T10:47:23.055Z,75.70
2023-01-04T10:49:57.853Z,75.60
2023-01-04T10:52:30.658Z,75.60
2023-01-04T10:55:05.731Z,75.10
2023-01-04T10:57:40.658Z,74.50
2023-01-04T11:00:15.269Z,73.70
2023-01-04T11:02:51.650Z,73.30
2023-01-04T11:05:26.445Z,72.90
2023-01-04T11:07:59.226Z,72.90
2023-01-04T11:10:32.324Z,73.00
2023-01-04T11:13:00.492Z,73.10
2023-01-04T11:15:29.720Z,73.10
2023-01-04T11:17:58.781Z,72.60
2023-01-04T11:20:27.809Z,72.20
2023-01-04T11:23:02.210Z,72.10
2023-01-04T11:25:38.874Z,71.70
2023-01-04T11:28:16.021Z,71.70
2023-01-04T11:30:54.708Z,71.30
2023-01-04T11:33:25.072Z,71.40
2023-01-04T11:35:55.805Z,71.10
2023-01-04T11:38:25.436Z,71.10
2023-01-04T11:41:01.264Z,71.30
2023-01-04T11:43:31.604Z,70.40
2023-01-04T11:46:05.664Z,70.40
2023-01-04T11:48:40.369Z,70.10
2023-01-04T11:51:18.731Z,69.80
2023-01-04T11:53:47.700Z,69.80
2023-01-04T11:56:20.356Z,69.80
2023-01-04T11:59:22.879Z,69.10
2023-01-04T12:02:11.260Z,69.40
2023-01-04T12:04:39.567Z,69.50
2023-01-04T12:07:15.610Z,69.30
2023-01-04T12:09:43.763Z,69.40
2023-01-04T12:12:16.065Z,69.20
2023-01-04T12:14:49.272Z,68.80
2023-01-04T12:17:23.336Z,68.70
2023-01-04T12:19:54.571Z,68.40
2023-01-04T12:22:27.169Z,68.00
2023-01-04T12:25:00.563Z,68.60
2023-01-04T12:27:31.561Z,69.00
2023-01-04T12:30:01.281Z,68.80
2023-01-04T12:32:41.604Z,68.80
2023-01-04T12:36:01.226Z,69.00
2023-01-04T12:39:02.506Z,68.90
2023-01-04T12:42:22.135Z,68.90
2023-01-04T12:45:22.498Z,68.60
2023-01-04T12:48:10.532Z,68.60
2023-01-04T12:51:37.393Z,68.50
2023-01-04T12:54:32.334Z,68.70
2023-01-04T12:57:29.496Z,68.50
2023-01-04T13:00:02.469Z,68.40
2023-01-04T13:02:35.029Z,68.20
2023-01-04T13:05:54.799Z,68.20
2023-01-04T13:08:15.514Z,68.60
2023-01-04T13:10:49.350Z,68.70
2023-01-04T13:13:33.359Z,69.00
2023-01-04T13:16:19.398Z,69.00
2023-01-04T13:18:52.729Z,68.70
2023-01-04T13:21:29.961Z,68.80
2023-01-04T13:24:01.844Z,69.20
2023-01-04T13:26:43.319Z,69.10
2023-01-04T13:29:22.463Z,69.20
2023-01-04T13:31:55.116Z,68.70
2023-01-04T13:34:29.388Z,69.30
2023-01-04T13:37:06.056Z,69.00
2023-01-04T13:39:35.721Z,69.20
2023-01-04T13:42:06.392Z,69.50
2023-01-04T13:45:19.649Z,69.70
2023-01-04T13:47:52.070Z,69.20
2023-01-04T13:50:40.232Z,69.30
2023-01-04T13:53:21.657Z,69.40
2023-01-04T13:55:54.853Z,69.40
2023-01-04T13:58:26.850Z,69.40
2023-01-04T14:00:59.656Z,69.50
2023-01-04T14:03:36.316Z,69.50
2023-01-04T14:06:26.220Z,69.40
2023-01-04T14:09:06.550Z,69.90
2023-01-04T14:14:55.888Z,69.80
2023-01-04T14:17:32.576Z,69.60
2023-01-04T14:20:03.068Z,69.80
2023-01-04T14:22:52.310Z,70.00
2023-01-04T14:25:49.241Z,69.90
2023-01-04T14:28:48.662Z,69.80
2023-01-04T14:31:32.317Z,69.90
2023-01-04T14:34:07.158Z,69.90
2023-01-04T14:36:37.252Z,69.70
2023-01-04T14:39:26.980Z,69.80
2023-01-04T14:41:59.958Z,69.40
2023-01-04T14:44:32.023Z,69.70
2023-01-04T14:47:05.027Z,69.60
2023-01-04T14:49:34.165Z,69.80
2023-01-04T14:52:04.469Z,70.00
2023-01-04T14:54:35.871Z,69.60
2023-01-04T14:57:08.770Z,69.80
2023-01-04T14:59:37.703Z,69.70
2023-01-04T15:02:07.112Z,69.80
2023-01-04T15:04:36.355Z,69.70
2023-01-04T15:07:05.052Z,69.80
2023-01-04T15:09:36.653Z,70.00
2023-01-04T15:12:06.778Z,69.80
2023-01-04T15:14:36.477Z,70.00
2023-01-04T15:17:05.556Z,70.10
2023-01-04T15:19:38.099Z,69.90
2023-01-04T15:22:07.940Z,70.20
2023-01-04T15:24:39.307Z,70.30
2023-01-04T15:27:08.317Z,70.10
2023-01-04T15:29:36.820Z,70.40
2023-01-04T15:32:07.776Z,70.20
2023-01-04T15:34:40.653Z,70.50
2023-01-04T15:37:15.969Z,70.50
2023-01-04T15:39:53.184Z,70.60
2023-01-04T15:42:43.500Z,70.80
2023-01-04T15:45:13.409Z,70.90
2023-01-04T15:47:42.638Z,70.80
2023-01-04T15:50:12.426Z,70.90
2023-01-04T15:52:41.367Z,71.20
2023-01-04T15:55:12.811Z,71.20
2023-01-04T15:57:44.344Z,71.20
2023-01-04T16:00:15.815Z,71.20
2023-01-04T16:02:45.636Z,71.30
2023-01-04T16:05:16.641Z,71.30
2023-01-04T16:07:46.164Z,71.20
2023-01-04T16:10:17.386Z,71.30
2023-01-04T16:12:51.422Z,71.40
2023-01-04T16:15:26.424Z,71.40
2023-01-04T16:17:56.466Z,71.60
2023-01-04T16:20:25.572Z,71.60
2023-01-04T16:22:54.734Z,71.70
2023-01-04T16:25:25.161Z,71.80
2023-01-04T16:27:55.076Z,72.00
2023-01-04T16:30:29.724Z,71.90
2023-01-04T16:32:59.412Z,72.10
2023-01-04T16:35:28.765Z,72.20
2023-01-04T16:37:58.658Z,72.20
2023-01-04T16:40:29.539Z,72.00
2023-01-04T16:42:58.672Z,72.20
2023-01-04T16:45:28.299Z,72.20
2023-01-04T16:47:57.892Z,72.30
2023-01-04T16:50:27.275Z,72.30
2023-01-04T16:52:56.786Z,72.40
2023-01-04T16:55:26.371Z,72.40
2023-01-04T16:57:56.828Z,72.40
2023-01-04T17:00:26.959Z,72.30
2023-01-04T17:02:55.906Z,72.10
2023-01-04T17:05:25.548Z,72.30
2023-01-04T17:07:55.320Z,72.30
2023-01-04T17:10:29.433Z,72.20
2023-01-04T17:13:00.847Z,72.30
2023-01-04T17:15:45.561Z,72.10
2023-01-04T17:18:15.473Z,72.10
2023-01-04T17:20:44.778Z,72.00
2023-01-04T17:23:13.965Z,72.10
2023-01-04T17:25:43.201Z,72.00
2023-01-04T17:28:14.095Z,71.80
2023-01-04T17:30:43.935Z,71.90
2023-01-04T17:33:13.735Z,71.80
2023-01-04T17:35:42.817Z,71.80
2023-01-04T17:38:11.602Z,71.90
2023-01-04T17:40:41.113Z,71.50
2023-01-04T17:43:10.293Z,71.80
2023-01-04T17:45:41.602Z,71.40
2023-01-04T17:48:11.238Z,71.40
2023-01-04T17:50:41.140Z,71.60
2023-01-04T17:53:10.483Z,71.60
2023-01-04T17:55:39.707Z,71.70
2023-01-04T17:58:11.695Z,71.40
2023-01-04T18:00:43.410Z,71.40
2023-01-04T18:03:12.372Z,71.50
2023-01-04T18:05:51.728Z,71.80
2023-01-04T18:08:22.529Z,71.60
2023-01-04T18:11:08.534Z,71.70
2023-01-04T18:16:24.293Z,71.40
2023-01-04T18:18:54.999Z,71.30
2023-01-04T18:21:29.128Z,71.20
2023-01-04T18:29:39.649Z,72.10
2023-01-04T18:32:11.114Z,72.80
2023-01-04T18:34:40.164Z,73.00
2023-01-04T18:37:09.373Z,73.10
2023-01-04T18:39:38.889Z,73.40
2023-01-04T18:42:08.158Z,74.30
2023-01-04T18:44:43.880Z,74.10
2023-01-04T18:47:16.866Z,74.30
2023-01-04T18:49:45.704Z,74.20
2023-01-04T18:52:15.177Z,74.10
2023-01-04T18:54:45.534Z,74.20
2023-01-04T18:57:14.925Z,74.20
2023-01-04T18:59:44.457Z,74.10
2023-01-04T19:02:20.462Z,74.10
2023-01-04T19:04:50.289Z,74.00
2023-01-04T19:07:19.616Z,74.00
2023-01-04T19:09:48.881Z,74.00
2023-01-04T19:12:18.087Z,74.10
2023-01-04T19:14:47.694Z,74.10
2023-01-04T19:17:17.577Z,74.00
2023-01-04T19:19:48.759Z,74.00
2023-01-04T19:22:17.994Z,73.90
2023-01-04T19:24:47.011Z,73.80
2023-01-04T19:27:16.835Z,73.90
2023-01-04T19:29:46.752Z,74.10
2023-01-04T19:32:19.717Z,74.20
2023-01-04T19:34:50.956Z,74.20
2023-01-04T19:37:20.386Z,74.10
2023-01-04T19:39:49.812Z,74.20
2023-01-04T19:42:18.347Z,74.10
2023-01-04T19:44:47.141Z,74.20
2023-01-04T19:47:16.916Z,74.30
2023-01-04T19:49:46.230Z,74.40
2023-01-04T19:52:16.995Z,74.20
2023-01-04T19:54:45.879Z,74.30
2023-01-04T19:57:15.004Z,74.20
2023-01-04T19:59:44.890Z,74.00
2023-01-04T20:02:14.665Z,73.90
2023-01-04T20:04:44.066Z,74.00
2023-01-04T20:07:13.674Z,74.00
2023-01-04T20:09:45.079Z,74.10
2023-01-04T20:12:14.457Z,74.00
2023-01-04T20:14:43.843Z,74.00
2023-01-04T20:17:13.011Z,74.00
2023-01-04T20:19:42.105Z,74.10
2023-01-04T20:22:11.857Z,74.10
2023-01-04T20:24:41.273Z,74.10
2023-01-04T20:27:12.064Z,74.10
2023-01-04T20:29:41.829Z,74.20
2023-01-04T20:32:11.041Z,74.10
2023-01-04T20:34:40.970Z,74.20
2023-01-04T20:37:10.048Z,74.10
2023-01-04T20:39:39.427Z,74.10
2023-01-04T20:42:25.912Z,74.10
2023-01-04T20:44:57.259Z,74.10
2023-01-04T20:47:26.969Z,74.10
2023-01-04T20:49:55.973Z,74.10
2023-01-04T20:52:25.675Z,74.20
2023-01-04T20:54:55.138Z,74.20
2023-01-04T20:57:24.206Z,74.20
2023-01-04T20:59:53.654Z,74.20
2023-01-04T21:02:34.264Z,74.30
2023-01-04T21:05:10.552Z,74.40
2023-01-04T21:07:41.440Z,74.50
2023-01-04T21:10:12.265Z,74.60
2023-01-04T21:12:43.293Z,74.60
2023-01-04T21:15:21.990Z,74.60
2023-01-04T21:17:52.346Z,74.80
2023-01-04T21:20:24.488Z,74.80
2023-01-04T21:22:53.928Z,74.80
2023-01-04T21:25:23.451Z,74.80
2023-01-04T21:27:53.172Z,74.70
2023-01-04T21:30:23.258Z,74.60
2023-01-04T21:32:56.021Z,74.50
2023-01-04T21:35:30.385Z,74.50
2023-01-04T21:37:59.926Z,74.60
2023-01-04T21:40:28.858Z,74.50
2023-01-04T21:42:58.795Z,74.50
2023-01-04T21:45:28.773Z,74.50
2023-01-04T21:47:59.868Z,74.40
2023-01-04T21:50:31.260Z,74.40
2023-01-04T21:53:00.503Z,74.40
2023-01-04T21:55:34.535Z,74.40
2023-01-04T21:58:03.939Z,74.50
2023-01-04T22:00:33.318Z,74.40
2023-01-04T22:03:04.202Z,74.50
2023-01-04T22:05:33.448Z,74.40
2023-01-04T22:08:03.011Z,74.50
2023-01-04T22:10:32.845Z,74.50
2023-01-04T22:13:01.947Z,74.50
2023-01-04T22:15:31.570Z,74.50
2023-01-04T22:18:00.787Z,74.40
2023-01-04T22:20:32.118Z,74.40
2023-01-04T22:23:01.090Z,74.40
2023-01-04T22:25:29.528Z,74.50
2023-01-04T22:27:59.410Z,74.40
2023-01-04T22:30:29.152Z,74.40
2023-01-04T22:32:58.431Z,74.40
2023-01-04T22:35:26.599Z,74.40
2023-01-04T22:37:56.089Z,74.40
2023-01-04T22:40:24.273Z,74.40
2023-01-04T22:42:52.391Z,74.40
2023-01-04T22:45:20.587Z,74.30
2023-01-04T22:47:48.894Z,74.40
2023-01-04T22:50:17.326Z,74.50
2023-01-04T22:52:50.811Z,74.50
2023-01-04T22:55:21.023Z,74.50
2023-01-04T22:57:49.850Z,74.70
2023-01-04T23:00:18.120Z,74.70
2023-01-04T23:02:46.272Z,74.70
2023-01-04T23:05:14.483Z,74.70
2023-01-04T23:07:42.635Z,74.70
2023-01-04T23:10:10.967Z,74.70
2023-01-04T23:12:40.447Z,74.80
2023-01-04T23:15:10.033Z,74.70
2023-01-04T23:17:38.183Z,74.70
2023-01-04T23:20:10.414Z,74.60
2023-01-04T23:22:38.799Z,74.70
2023-01-04T23:25:07.973Z,74.60
2023-01-04T23:27:36.173Z,74.50
2023-01-04T23:30:06.522Z,74.50
2023-01-04T23:32:35.052Z,74.40
2023-01-04T23:35:03.618Z,74.40
2023-01-04T23:37:33.435Z,74.40
2023-01-04T23:40:01.599Z,74.40
2023-01-04T23:42:29.793Z,74.50
2023-01-04T23:44:57.911Z,74.30
2023-01-04T23:47:27.413Z,74.40
2023-01-04T23:49:55.563Z,74.30
2023-01-04T23:52:23.655Z,74.40
2023-01-04T23:54:51.764Z,74.40
2023-01-04T23:57:19.918Z,74.30
2023-01-04T23:59:48.019Z,74.30
